Kila, Montana
Current Conditions -  °F | °C
As of 2:55 PM on Thursday 23 Oct 2014 (Local Time) from KGPI Reporting Station
Scattered Clouds Scattered Clouds  
Wind Chill: 54°   Ceiling: Unl
Heat Index: 54°   Visibility: 10mi
Dew Point: 48°   Wind: 9mph
Humidity: 80%   Direction: 160°SSE
Pressure: 29.77"   Gusts: NA
Location:  48.12°N, 114.47°W
Report Text: KGPI 232055Z 16008KT 10SM SCT033 12/09 A2977 RMK AO2 RAB25E39 SLP082 P0000 60010 T01220089 58019
Loading
Personal Weather Stations






























Interactive Weather Map
Tropical Storm Tracking
New forecast layout! Learn more

10-Day Weather Forecast

Advertisements
Track Severe Weather on mobile